createdAt,value
2024-02-03T00:02:40.099Z,29.25
2024-02-03T00:12:50.066Z,24.47
2024-02-03T00:22:59.890Z,20.76
2024-02-03T00:33:00.876Z,22.77
2024-02-03T00:43:10.298Z,22.92
2024-02-03T00:53:20.101Z,22.93
2024-02-03T01:03:32.281Z,27.45
2024-02-03T01:13:32.377Z,27.54
2024-02-03T01:23:34.388Z,26.43
2024-02-03T01:33:45.483Z,30
2024-02-03T01:43:47.699Z,24.83
2024-02-03T01:53:47.820Z,25.83
2024-02-03T02:03:48.908Z,24.81
2024-02-03T02:13:52.345Z,23.67
2024-02-03T02:23:54.085Z,24.1
2024-02-03T02:33:55.166Z,23.71
2024-02-03T02:44:04.928Z,24.03
2024-02-03T02:54:16.187Z,24.53
2024-02-03T03:04:22.129Z,26.22
2024-02-03T03:14:27.958Z,24.09
2024-02-03T03:24:28.913Z,28.74
2024-02-03T03:34:39.003Z,25.73
2024-02-03T03:44:39.907Z,26.53
2024-02-03T03:54:44.008Z,30.27
2024-02-03T04:04:51.371Z,30.68
2024-02-03T04:15:05.226Z,27.22
2024-02-03T04:25:10.622Z,26.74
2024-02-03T04:35:10.514Z,28.03
2024-02-03T04:45:10.588Z,28.6
2024-02-03T04:55:15.092Z,29.1
2024-02-03T05:05:16.535Z,28.24
2024-02-03T05:15:18.142Z,27.85
2024-02-03T05:25:19.661Z,28.38
2024-02-03T05:35:19.414Z,24.69
2024-02-03T05:45:32.127Z,26.43
2024-02-03T05:55:32.072Z,23.96
2024-02-03T06:05:48.614Z,21.61
2024-02-03T06:15:50.715Z,21.7
2024-02-03T06:25:50.024Z,23.63
2024-02-03T06:36:00.208Z,23.77
2024-02-03T06:46:09.951Z,27.36
2024-02-03T06:56:19.745Z,26.98
2024-02-03T07:06:30.448Z,23.93
2024-02-03T07:16:30.285Z,20.95
2024-02-03T07:26:31.177Z,22.56
2024-02-03T07:36:41.234Z,25.81
2024-02-03T07:46:41.045Z,22.45
2024-02-03T07:56:51.001Z,25.03
2024-02-03T08:07:03.165Z,24.88
2024-02-03T08:17:10.297Z,23.72
2024-02-03T08:27:20.166Z,24.14
2024-02-03T08:37:30.080Z,23.07
2024-02-03T08:47:39.959Z,23.35
2024-02-03T08:57:49.831Z,23.24
2024-02-03T09:07:59.830Z,23.44
2024-02-03T09:18:00.836Z,21.18
2024-02-03T09:38:01.686Z,18.53
2024-02-03T09:48:11.766Z,22.44
2024-02-03T09:58:13.482Z,23.7
2024-02-03T10:08:13.417Z,17.94
2024-02-03T10:18:23.469Z,20.13
2024-02-03T10:28:33.274Z,23.7
2024-02-03T10:38:45.023Z,21.39
2024-02-03T10:48:44.986Z,18.26
2024-02-03T10:58:48.184Z,15.42
2024-02-03T11:09:00.395Z,15.99
2024-02-03T11:19:04.427Z,20.7
2024-02-03T11:29:03.368Z,19.52
2024-02-03T11:39:14.641Z,15.55
2024-02-03T11:49:16.638Z,16.37
2024-02-03T11:59:19.037Z,17.92
2024-02-03T12:09:22.878Z,19.49
2024-02-03T12:19:24.035Z,19.52
2024-02-03T12:29:26.359Z,19.01
2024-02-03T12:39:35.252Z,23.59
2024-02-03T12:49:35.203Z,20.7
2024-02-03T12:59:50.177Z,21.99
2024-02-03T13:09:55.383Z,19.54
2024-02-03T13:20:17.938Z,17.33
2024-02-03T13:30:03.121Z,14.86
2024-02-03T13:40:09.371Z,14.32
2024-02-03T13:50:10.609Z,17.45
2024-02-03T14:00:10.692Z,15.97
2024-02-03T14:10:10.673Z,15.2
2024-02-03T14:20:22.830Z,13.37
2024-02-03T14:30:23.749Z,12.54
2024-02-03T14:40:23.800Z,12.43
2024-02-03T14:50:23.819Z,11.55
2024-02-03T15:00:34.583Z,12.88
2024-02-03T15:10:34.414Z,14.06
2024-02-03T15:20:45.429Z,14.7
2024-02-03T15:30:46.964Z,14.03
2024-02-03T15:40:48.463Z,16.38
2024-02-03T15:50:49.134Z,15.2
2024-02-03T16:00:58.965Z,13.12
2024-02-03T16:11:10.234Z,15.23
2024-02-03T16:21:15.019Z,15.63
2024-02-03T16:31:15.330Z,16.38
2024-02-03T16:41:19.586Z,14.78
2024-02-03T16:51:28.074Z,14
2024-02-03T17:01:31.124Z,16.85
2024-02-03T17:11:33.718Z,15.12
2024-02-03T17:21:43.697Z,13.93
2024-02-03T17:31:53.383Z,15.53
2024-02-03T17:42:03.443Z,16.55
2024-02-03T17:52:07.952Z,17.96
2024-02-03T18:02:07.919Z,16.32
2024-02-03T18:12:19.227Z,19.11
2024-02-03T18:22:19.717Z,15.23
2024-02-03T18:32:29.674Z,15.56
2024-02-03T18:42:30.504Z,17.62
2024-02-03T18:52:30.906Z,26.25
2024-02-03T19:02:42.060Z,17.51
2024-02-03T19:22:44.592Z,18.85
2024-02-03T19:42:48.521Z,19.16
2024-02-03T19:52:52.252Z,19.48
2024-02-03T20:02:26.956Z,21.87
2024-02-03T20:11:28.893Z,28.47
2024-02-03T20:31:31.353Z,22.8
2024-02-03T20:51:35.793Z,23.62
2024-02-03T21:01:35.752Z,30.21
2024-02-03T21:11:45.619Z,22.04
2024-02-03T21:21:55.578Z,26.04
2024-02-03T21:32:10.848Z,27.96
2024-02-03T21:42:10.876Z,25.03
2024-02-03T21:52:21.991Z,21.29
2024-02-03T22:02:29.626Z,24.3
2024-02-03T22:12:39.756Z,21.51
2024-02-03T22:22:40.866Z,23.71
2024-02-03T22:32:40.714Z,22.28
2024-02-03T22:42:46.596Z,20.23
2024-02-03T22:52:46.534Z,22.07
2024-02-03T23:02:56.515Z,23.63
2024-02-03T23:12:56.904Z,22.02
2024-02-03T23:22:56.957Z,21.99
2024-02-03T23:32:58.708Z,22.16
2024-02-03T23:42:58.641Z,23.86
2024-02-03T23:53:08.184Z,26.8
